createdAt,value
2023-01-19T00:00:15.575Z,10.50
2023-01-19T00:01:09.525Z,9.90
2023-01-19T00:01:45.140Z,9.90
2023-01-19T00:02:21.456Z,10.40
2023-01-19T00:02:55.329Z,10.50
2023-01-19T00:03:39.101Z,10.20
2023-01-19T00:04:12.599Z,9.40
2023-01-19T00:04:46.285Z,11.00
2023-01-19T00:05:19.911Z,10.60
2023-01-19T00:05:53.613Z,10.00
2023-01-19T00:06:29.309Z,10.10
2023-01-19T00:07:05.812Z,11.40
2023-01-19T00:07:46.890Z,9.50
2023-01-19T00:08:24.702Z,10.50
2023-01-19T00:09:00.683Z,10.60
2023-01-19T00:09:38.643Z,9.30
2023-01-19T00:10:13.863Z,10.80
2023-01-19T00:10:53.852Z,11.70
2023-01-19T00:11:30.074Z,9.70
2023-01-19T00:12:03.694Z,11.80
2023-01-19T00:12:37.202Z,9.90
2023-01-19T00:13:10.839Z,10.00
2023-01-19T00:13:51.067Z,10.10
2023-01-19T00:14:30.200Z,10.00
2023-01-19T00:15:04.263Z,10.90
2023-01-19T00:15:37.991Z,10.40
2023-01-19T00:16:20.379Z,10.00
2023-01-19T00:16:54.128Z,10.50
2023-01-19T00:17:32.488Z,10.60
2023-01-19T00:18:11.396Z,9.90
2023-01-19T00:18:50.796Z,11.50
2023-01-19T00:19:24.698Z,11.00
2023-01-19T00:19:58.322Z,11.50
2023-01-19T00:20:38.840Z,10.90
2023-01-19T00:21:17.315Z,9.80
2023-01-19T00:21:50.893Z,11.00
2023-01-19T00:22:24.446Z,11.90
2023-01-19T00:22:58.352Z,9.40
2023-01-19T00:23:33.955Z,9.90
2023-01-19T00:24:07.813Z,11.90
2023-01-19T00:24:41.381Z,10.30
2023-01-19T00:25:14.994Z,10.10
2023-01-19T00:25:49.480Z,10.70
2023-01-19T00:26:24.351Z,10.80
2023-01-19T00:26:58.979Z,11.30
2023-01-19T00:27:35.125Z,10.90
2023-01-19T00:28:11.885Z,10.10
2023-01-19T00:28:45.564Z,10.40
2023-01-19T00:29:22.183Z,10.90
2023-01-19T00:29:58.146Z,10.80
2023-01-19T00:30:31.600Z,10.70
2023-01-19T00:31:05.330Z,10.10
2023-01-19T00:31:39.292Z,10.90
2023-01-19T00:32:14.755Z,11.00
2023-01-19T00:32:48.332Z,11.50
2023-01-19T00:33:21.936Z,9.70
2023-01-19T00:33:55.717Z,11.30
2023-01-19T00:34:39.312Z,11.80
2023-01-19T00:35:12.874Z,11.40
2023-01-19T00:35:51.860Z,12.00
2023-01-19T00:36:25.551Z,10.70
2023-01-19T00:37:02.268Z,11.60
2023-01-19T00:37:36.016Z,11.30
2023-01-19T00:38:11.441Z,13.20
2023-01-19T00:38:44.961Z,11.50
2023-01-19T00:39:18.575Z,11.90
2023-01-19T00:39:52.048Z,12.50
2023-01-19T00:40:25.677Z,12.50
2023-01-19T00:40:59.370Z,12.60
2023-01-19T00:41:51.616Z,13.30
2023-01-19T00:42:41.611Z,12.50
2023-01-19T00:43:17.582Z,12.20
2023-01-19T00:43:58.525Z,12.20
2023-01-19T00:44:32.071Z,11.10
2023-01-19T00:45:06.817Z,11.60
2023-01-19T00:45:40.878Z,12.50
2023-01-19T00:46:14.575Z,12.30
2023-01-19T00:46:48.393Z,14.50
2023-01-19T00:47:21.953Z,12.10
2023-01-19T00:48:00.428Z,12.30
2023-01-19T00:48:36.442Z,12.30
2023-01-19T00:49:10.429Z,13.00
2023-01-19T00:49:45.672Z,12.10
2023-01-19T00:50:19.347Z,13.10
2023-01-19T00:50:52.903Z,13.70
2023-01-19T00:51:35.470Z,14.40
2023-01-19T00:52:10.074Z,13.20
2023-01-19T00:52:45.082Z,12.20
2023-01-19T00:53:18.637Z,12.80
2023-01-19T00:53:52.291Z,13.60
2023-01-19T00:54:27.699Z,14.00
2023-01-19T00:55:01.470Z,13.30
2023-01-19T00:55:35.855Z,13.30
2023-01-19T00:56:09.376Z,13.20
2023-01-19T00:56:45.435Z,11.80
2023-01-19T00:57:21.993Z,15.10
2023-01-19T00:57:59.907Z,14.10
2023-01-19T00:58:36.299Z,13.70
2023-01-19T00:59:11.108Z,13.20
2023-01-19T00:59:44.803Z,13.40
2023-01-19T01:00:20.352Z,12.80
2023-01-19T01:00:54.509Z,13.50
2023-01-19T01:01:44.945Z,13.50
2023-01-19T01:02:19.987Z,12.90
2023-01-19T01:02:54.431Z,14.00
2023-01-19T01:03:28.306Z,13.40
2023-01-19T01:04:02.008Z,13.70
2023-01-19T01:04:35.917Z,14.40
2023-01-19T01:05:10.091Z,13.30
2023-01-19T01:05:43.615Z,13.70
2023-01-19T01:06:17.180Z,13.50
2023-01-19T01:06:50.715Z,13.60
2023-01-19T01:07:25.193Z,14.00
2023-01-19T01:07:58.806Z,15.00
2023-01-19T01:08:32.569Z,14.30
2023-01-19T01:09:13.139Z,13.70
2023-01-19T01:09:48.352Z,15.50
2023-01-19T01:10:28.007Z,14.50
2023-01-19T01:11:01.778Z,12.80
2023-01-19T01:11:35.394Z,16.40
2023-01-19T01:12:08.969Z,14.90
2023-01-19T01:12:57.623Z,14.90
2023-01-19T01:13:33.089Z,13.80
2023-01-19T01:14:07.729Z,14.10
2023-01-19T01:14:41.349Z,15.00
2023-01-19T01:15:16.419Z,13.30
2023-01-19T01:15:51.850Z,14.10
2023-01-19T01:16:25.468Z,13.50
2023-01-19T01:16:59.219Z,16.10
2023-01-19T01:17:33.103Z,14.10
2023-01-19T01:18:06.817Z,14.00
2023-01-19T01:18:40.366Z,14.50
2023-01-19T01:19:14.049Z,14.30
2023-01-19T01:19:47.715Z,13.60
2023-01-19T01:20:24.243Z,15.20
2023-01-19T01:21:05.054Z,13.90
2023-01-19T01:21:38.954Z,15.20
2023-01-19T01:22:12.519Z,12.70
2023-01-19T01:22:48.845Z,14.30
2023-01-19T01:23:23.139Z,14.40
2023-01-19T01:23:56.722Z,14.30
2023-01-19T01:24:30.659Z,14.30
2023-01-19T01:25:04.458Z,15.20
2023-01-19T01:25:38.878Z,13.50
2023-01-19T01:26:12.554Z,13.80
2023-01-19T01:26:46.265Z,13.70
2023-01-19T01:27:19.901Z,16.30
2023-01-19T01:27:54.529Z,13.30
2023-01-19T01:28:28.082Z,14.90
2023-01-19T01:29:02.036Z,14.60
2023-01-19T01:29:35.728Z,14.70
2023-01-19T01:30:11.726Z,14.70
2023-01-19T01:30:45.282Z,14.60
2023-01-19T01:31:18.877Z,13.80
2023-01-19T01:31:52.693Z,14.00
2023-01-19T01:32:26.488Z,14.80
2023-01-19T01:33:00.362Z,14.70
2023-01-19T01:33:40.758Z,14.40
2023-01-19T01:34:15.252Z,13.80
2023-01-19T01:34:48.900Z,16.80
2023-01-19T01:35:22.482Z,15.80
2023-01-19T01:35:56.052Z,14.20
2023-01-19T01:36:32.409Z,14.40
2023-01-19T01:37:08.441Z,15.00
2023-01-19T01:37:45.716Z,13.10
2023-01-19T01:38:19.249Z,13.70
2023-01-19T01:38:52.863Z,14.20
2023-01-19T01:39:26.389Z,14.40
2023-01-19T01:39:59.902Z,14.50
2023-01-19T01:40:33.437Z,14.70
2023-01-19T01:41:07.033Z,15.10
2023-01-19T01:41:40.604Z,16.30
2023-01-19T01:42:19.770Z,14.30
2023-01-19T01:42:53.324Z,15.00
2023-01-19T01:44:04.049Z,14.80
2023-01-19T01:44:53.217Z,13.40
2023-01-19T01:45:32.743Z,14.70
2023-01-19T01:46:06.751Z,14.70
2023-01-19T01:46:40.217Z,14.80
2023-01-19T01:47:14.157Z,14.30
2023-01-19T01:47:50.194Z,14.40
2023-01-19T01:48:31.094Z,15.20
2023-01-19T01:49:14.654Z,14.20
2023-01-19T01:49:48.841Z,14.20
2023-01-19T01:50:28.869Z,14.60
2023-01-19T01:51:27.055Z,13.10
2023-01-19T01:52:01.081Z,14.40
2023-01-19T01:52:39.148Z,14.20
2023-01-19T01:53:15.225Z,15.40
2023-01-19T01:54:09.769Z,14.60
2023-01-19T01:54:43.852Z,14.80
2023-01-19T01:55:18.838Z,13.00
2023-01-19T01:55:52.353Z,13.60
2023-01-19T01:56:34.566Z,14.50
2023-01-19T01:57:13.208Z,14.50
2023-01-19T01:57:52.204Z,14.20
2023-01-19T01:58:25.940Z,14.20
2023-01-19T01:59:03.162Z,14.80
2023-01-19T01:59:43.364Z,14.20
2023-01-19T02:00:17.325Z,16.10
2023-01-19T02:01:11.188Z,15.10
2023-01-19T02:02:03.814Z,15.70
2023-01-19T02:02:55.388Z,14.70
2023-01-19T02:03:29.727Z,15.10
2023-01-19T02:04:03.688Z,13.40
2023-01-19T02:04:38.754Z,15.20
2023-01-19T02:05:21.274Z,14.60
2023-01-19T02:05:59.581Z,16.20
2023-01-19T02:06:34.139Z,14.90
2023-01-19T02:07:26.532Z,15.30
2023-01-19T02:08:23.529Z,14.20
2023-01-19T02:09:25.124Z,14.40
2023-01-19T02:10:17.672Z,13.50
2023-01-19T02:11:10.548Z,15.80
2023-01-19T02:12:02.967Z,16.10
2023-01-19T02:12:55.592Z,14.70
2023-01-19T02:13:31.003Z,16.60
2023-01-19T02:14:06.026Z,14.10
2023-01-19T02:14:39.614Z,15.60
2023-01-19T02:15:19.361Z,15.00
2023-01-19T02:15:59.671Z,14.90
2023-01-19T02:16:34.261Z,17.00
2023-01-19T02:17:08.005Z,14.20
2023-01-19T02:17:41.495Z,15.30
2023-01-19T02:18:15.137Z,15.00
2023-01-19T02:18:48.882Z,16.30
2023-01-19T02:19:32.172Z,14.50
2023-01-19T02:20:06.497Z,15.90
2023-01-19T02:20:42.689Z,16.70
2023-01-19T02:21:47.018Z,17.00
2023-01-19T02:22:22.816Z,15.60
2023-01-19T02:23:03.441Z,13.80
2023-01-19T02:23:51.334Z,16.60
2023-01-19T02:24:25.817Z,15.00
2023-01-19T02:24:59.528Z,15.30
2023-01-19T02:25:33.469Z,15.70
2023-01-19T02:26:10.009Z,14.50
2023-01-19T02:26:47.167Z,15.00
2023-01-19T02:27:21.141Z,15.50
2023-01-19T02:27:55.587Z,15.50
2023-01-19T02:28:30.837Z,16.90
2023-01-19T02:29:30.690Z,14.60
2023-01-19T02:30:05.151Z,14.50
2023-01-19T02:30:41.420Z,14.40
2023-01-19T02:31:15.488Z,15.60
2023-01-19T02:31:49.088Z,16.40
2023-01-19T02:32:22.738Z,17.00
2023-01-19T02:32:56.252Z,16.90
2023-01-19T02:33:29.815Z,15.60
2023-01-19T02:34:05.739Z,16.40
2023-01-19T02:34:39.301Z,13.50
2023-01-19T02:35:13.333Z,14.80
2023-01-19T02:35:48.848Z,16.60
2023-01-19T02:36:27.370Z,17.00
2023-01-19T02:37:11.761Z,17.40
2023-01-19T02:37:45.988Z,12.50
2023-01-19T02:38:21.534Z,14.10
2023-01-19T02:39:00.406Z,14.40
2023-01-19T02:39:39.255Z,15.70
2023-01-19T02:40:20.021Z,15.30
2023-01-19T02:40:57.056Z,17.50
2023-01-19T02:41:37.708Z,16.20
2023-01-19T02:42:16.213Z,16.00
2023-01-19T02:42:52.265Z,16.60
2023-01-19T02:43:28.406Z,17.30
2023-01-19T02:44:03.627Z,15.90
2023-01-19T02:44:39.749Z,17.00
2023-01-19T02:45:17.188Z,16.70
2023-01-19T02:45:50.990Z,16.70
2023-01-19T02:46:25.955Z,16.90
2023-01-19T02:46:59.991Z,16.00
2023-01-19T02:47:43.227Z,14.10
2023-01-19T02:48:18.825Z,15.00
2023-01-19T02:48:52.405Z,16.70
2023-01-19T03:02:17.830Z,18.30
2023-01-19T03:03:10.710Z,18.00
2023-01-19T03:04:19.989Z,14.80
2023-01-19T03:05:08.563Z,15.50
2023-01-19T03:05:54.509Z,14.80
2023-01-19T03:06:40.351Z,17.00
2023-01-19T03:07:27.669Z,16.90
2023-01-19T03:08:29.013Z,15.20
2023-01-19T03:09:11.648Z,17.80
2023-01-19T03:09:57.700Z,16.30
2023-01-19T03:10:43.082Z,16.50
2023-01-19T03:11:16.793Z,16.60
2023-01-19T03:12:09.825Z,16.50
2023-01-19T03:12:50.871Z,16.70
2023-01-19T03:13:32.978Z,16.60
2023-01-19T03:14:13.383Z,18.40
2023-01-19T03:14:48.759Z,17.40
2023-01-19T03:15:25.247Z,19.10
2023-01-19T03:16:31.057Z,17.60
2023-01-19T03:17:07.855Z,17.10
2023-01-19T03:17:44.988Z,18.30
2023-01-19T03:18:24.986Z,15.50
2023-01-19T03:19:10.421Z,17.70
2023-01-19T03:19:48.470Z,18.80
2023-01-19T03:20:25.785Z,17.80
2023-01-19T03:21:04.094Z,15.40
2023-01-19T03:21:39.427Z,17.50
2023-01-19T03:22:23.123Z,17.60
2023-01-19T03:23:04.613Z,15.90
2023-01-19T03:23:41.468Z,17.60
2023-01-19T03:24:17.710Z,15.30
2023-01-19T03:24:53.967Z,16.20
2023-01-19T03:25:31.369Z,15.90
2023-01-19T03:26:07.259Z,18.10
2023-01-19T03:26:47.058Z,17.40
2023-01-19T03:27:31.439Z,17.90
2023-01-19T03:28:05.298Z,18.70
2023-01-19T03:28:42.433Z,17.90
2023-01-19T03:29:17.795Z,17.20
2023-01-19T03:29:57.354Z,17.90
2023-01-19T03:30:41.791Z,16.90
2023-01-19T03:31:21.444Z,16.50
2023-01-19T03:31:57.564Z,17.70
2023-01-19T03:32:37.628Z,18.20
2023-01-19T03:33:23.969Z,14.70
2023-01-19T03:34:03.513Z,17.00
2023-01-19T03:34:39.568Z,15.30
2023-01-19T03:35:16.005Z,17.60
2023-01-19T03:35:53.198Z,17.30
2023-01-19T03:36:42.843Z,16.60
2023-01-19T03:37:19.877Z,12.70
2023-01-19T03:37:58.379Z,18.10
2023-01-19T03:38:37.164Z,17.60
2023-01-19T03:39:14.442Z,16.00
2023-01-19T03:39:48.116Z,16.40
2023-01-19T03:40:23.673Z,18.00
2023-01-19T03:41:02.549Z,15.60
2023-01-19T03:41:37.874Z,19.30
2023-01-19T03:42:14.752Z,15.50
2023-01-19T03:42:50.569Z,17.80
2023-01-19T03:43:25.923Z,17.70
2023-01-19T03:44:00.326Z,17.50
2023-01-19T03:44:37.879Z,17.60
2023-01-19T03:45:13.023Z,16.80
2023-01-19T03:45:47.013Z,16.60
2023-01-19T03:46:21.392Z,16.60
2023-01-19T03:46:57.018Z,15.20
2023-01-19T03:47:30.759Z,17.80
2023-01-19T03:48:05.507Z,15.90
2023-01-19T03:48:39.282Z,15.90
2023-01-19T03:49:13.005Z,16.80
2023-01-19T03:49:48.869Z,18.40
2023-01-19T03:50:27.694Z,15.00
2023-01-19T03:51:08.172Z,17.60
2023-01-19T03:51:42.120Z,16.10
2023-01-19T03:52:15.497Z,17.70
2023-01-19T03:53:10.143Z,17.50
2023-01-19T03:53:43.767Z,16.80
2023-01-19T03:54:17.578Z,17.80
2023-01-19T03:54:51.077Z,18.20
2023-01-19T03:55:24.662Z,17.10
2023-01-19T03:55:58.269Z,18.90
2023-01-19T03:56:31.984Z,18.30
2023-01-19T03:57:05.601Z,16.90
2023-01-19T03:57:39.140Z,17.90
2023-01-19T03:58:12.701Z,19.70
2023-01-19T03:58:47.175Z,17.70
2023-01-19T03:59:22.007Z,18.40
2023-01-19T03:59:56.115Z,17.60
2023-01-19T04:00:30.142Z,17.50
2023-01-19T04:01:04.424Z,18.40
2023-01-19T04:01:38.134Z,16.90
2023-01-19T04:02:11.794Z,18.10
2023-01-19T04:02:45.344Z,16.80
2023-01-19T04:03:18.996Z,16.60
2023-01-19T04:03:53.535Z,17.50
2023-01-19T04:04:27.040Z,17.00
2023-01-19T04:05:00.560Z,15.80
2023-01-19T04:05:34.317Z,18.70
2023-01-19T04:06:08.908Z,17.70
2023-01-19T04:06:43.492Z,14.80
2023-01-19T04:07:17.228Z,18.00
2023-01-19T04:07:54.313Z,17.70
2023-01-19T04:08:28.273Z,17.70
2023-01-19T04:09:02.078Z,17.40
2023-01-19T04:09:35.729Z,17.50
2023-01-19T04:10:12.885Z,18.30
2023-01-19T04:10:46.450Z,16.60
2023-01-19T04:11:20.005Z,18.70
2023-01-19T04:11:53.731Z,18.10
2023-01-19T04:12:27.443Z,16.10
2023-01-19T04:13:02.800Z,17.60
2023-01-19T04:13:37.091Z,17.60
2023-01-19T04:14:10.790Z,16.90
2023-01-19T04:14:44.367Z,15.40
2023-01-19T04:15:18.800Z,16.40
2023-01-19T04:15:52.237Z,15.70
2023-01-19T04:16:25.881Z,17.80
2023-01-19T04:16:59.442Z,18.90
2023-01-19T04:17:33.069Z,16.80
2023-01-19T04:18:07.200Z,17.50
2023-01-19T04:18:41.627Z,17.60
2023-01-19T04:19:15.230Z,17.50
2023-01-19T04:19:49.067Z,18.20
2023-01-19T04:20:22.784Z,16.80
2023-01-19T04:20:56.455Z,16.00
2023-01-19T04:21:30.102Z,16.80
2023-01-19T04:22:05.154Z,15.90
2023-01-19T04:22:39.536Z,16.20
2023-01-19T04:23:13.010Z,16.50
2023-01-19T04:23:46.889Z,15.80
2023-01-19T04:24:20.450Z,16.70
2023-01-19T04:24:54.013Z,16.30
2023-01-19T04:25:28.700Z,15.60
2023-01-19T04:26:05.284Z,17.20
2023-01-19T04:26:38.903Z,16.80
2023-01-19T04:27:12.420Z,16.30
2023-01-19T04:27:46.004Z,14.70
2023-01-19T04:28:19.507Z,16.30
2023-01-19T04:28:53.026Z,17.00
2023-01-19T04:29:26.639Z,16.40
2023-01-19T04:30:00.871Z,19.50
2023-01-19T04:30:34.658Z,16.60
2023-01-19T04:31:08.930Z,16.80
2023-01-19T04:31:42.396Z,16.10
2023-01-19T04:32:16.414Z,16.00
2023-01-19T04:32:50.079Z,14.20
2023-01-19T04:33:24.271Z,14.80
2023-01-19T04:33:57.921Z,16.70
2023-01-19T04:34:31.528Z,15.90
2023-01-19T04:35:05.569Z,17.60
2023-01-19T04:35:39.084Z,16.60
2023-01-19T04:36:12.840Z,13.40
2023-01-19T04:36:47.123Z,17.70
2023-01-19T04:37:20.793Z,16.20
2023-01-19T04:37:54.659Z,19.00
2023-01-19T04:38:28.439Z,16.20
2023-01-19T04:39:01.998Z,16.70
2023-01-19T04:39:36.094Z,16.20
2023-01-19T04:40:10.213Z,15.30
2023-01-19T04:40:43.810Z,16.10
2023-01-19T04:41:17.397Z,16.20
2023-01-19T04:41:52.092Z,16.20
2023-01-19T04:42:27.779Z,15.80
2023-01-19T04:43:01.771Z,15.60
2023-01-19T04:43:35.633Z,15.50
2023-01-19T04:44:09.356Z,17.30
2023-01-19T04:44:43.275Z,16.10
2023-01-19T04:45:17.673Z,17.40
2023-01-19T04:45:52.042Z,16.00
2023-01-19T04:46:25.548Z,17.80
2023-01-19T04:46:59.074Z,16.90
2023-01-19T04:47:32.479Z,16.00
2023-01-19T04:48:06.304Z,15.30
2023-01-19T04:48:41.328Z,16.20
2023-01-19T04:49:15.850Z,16.70
2023-01-19T04:49:49.298Z,17.80
2023-01-19T04:50:22.779Z,17.10
2023-01-19T04:50:56.306Z,16.00
2023-01-19T04:51:29.933Z,16.20
2023-01-19T04:52:05.005Z,15.30
2023-01-19T04:52:39.059Z,15.60
2023-01-19T04:53:13.933Z,16.60
2023-01-19T04:53:47.639Z,16.50
2023-01-19T04:54:21.494Z,15.10
2023-01-19T04:54:54.918Z,15.30
2023-01-19T04:55:28.434Z,16.10
2023-01-19T04:56:01.958Z,16.80
2023-01-19T04:56:36.030Z,16.30
2023-01-19T04:57:09.606Z,16.10
2023-01-19T04:57:43.823Z,14.70
2023-01-19T04:58:17.314Z,16.30
2023-01-19T04:58:50.742Z,16.60
2023-01-19T04:59:24.459Z,15.80
2023-01-19T04:59:58.858Z,17.20
2023-01-19T05:00:32.559Z,16.40
2023-01-19T05:01:10.013Z,16.30
2023-01-19T05:01:43.826Z,16.80
2023-01-19T05:02:17.985Z,17.10
2023-01-19T05:02:52.136Z,14.60
2023-01-19T05:03:26.672Z,15.80
2023-01-19T05:04:00.813Z,16.70
2023-01-19T05:04:34.414Z,15.70
2023-01-19T05:05:08.414Z,16.90
2023-01-19T05:05:42.046Z,18.40
2023-01-19T05:06:15.652Z,16.40
2023-01-19T05:06:49.755Z,16.70
2023-01-19T05:07:23.298Z,17.60
2023-01-19T05:07:56.890Z,16.80
2023-01-19T05:08:30.640Z,17.30
2023-01-19T05:09:04.808Z,16.90
2023-01-19T05:09:38.277Z,17.70
2023-01-19T05:10:12.660Z,17.40
2023-01-19T05:10:46.377Z,16.50
2023-01-19T05:11:19.840Z,17.10
2023-01-19T05:11:53.403Z,18.70
2023-01-19T05:12:27.637Z,17.40
2023-01-19T05:13:01.571Z,17.60
2023-01-19T05:13:35.646Z,16.50
2023-01-19T05:14:10.065Z,16.20
2023-01-19T05:14:43.748Z,16.40
2023-01-19T05:15:17.554Z,16.40
2023-01-19T05:15:51.148Z,18.30
2023-01-19T05:16:24.881Z,16.90
2023-01-19T05:16:58.944Z,17.50
2023-01-19T05:17:32.609Z,16.20
2023-01-19T05:18:06.714Z,16.10
2023-01-19T05:18:40.940Z,16.00
2023-01-19T05:19:14.459Z,16.20
2023-01-19T05:19:49.093Z,16.10
2023-01-19T05:20:22.727Z,15.60
2023-01-19T05:20:56.280Z,16.30
2023-01-19T05:21:30.021Z,15.70
2023-01-19T05:22:04.736Z,16.00
2023-01-19T05:22:39.495Z,15.10
2023-01-19T05:23:13.099Z,17.80
2023-01-19T05:23:46.628Z,16.00
2023-01-19T05:24:22.843Z,15.80
2023-01-19T05:24:58.002Z,17.00
2023-01-19T05:25:31.669Z,16.90
2023-01-19T05:26:05.404Z,17.40
2023-01-19T05:26:38.893Z,16.90
2023-01-19T05:27:12.578Z,17.60
2023-01-19T05:27:48.475Z,17.00
2023-01-19T05:28:21.991Z,16.80
2023-01-19T05:28:55.551Z,17.90
2023-01-19T05:29:29.031Z,17.30
2023-01-19T05:30:02.687Z,17.70
2023-01-19T05:30:36.928Z,16.80
2023-01-19T05:31:10.696Z,17.90
2023-01-19T05:31:44.284Z,17.90
2023-01-19T05:32:17.815Z,16.00
2023-01-19T05:32:51.352Z,18.10
2023-01-19T05:33:25.453Z,16.60
2023-01-19T05:33:59.083Z,16.60
2023-01-19T05:34:32.548Z,17.10
2023-01-19T05:35:06.763Z,16.70
2023-01-19T05:35:40.293Z,16.10
2023-01-19T05:36:13.923Z,16.00
2023-01-19T05:36:49.727Z,17.80
2023-01-19T05:37:23.299Z,16.80
2023-01-19T05:37:56.855Z,17.20
2023-01-19T05:38:35.338Z,17.50
2023-01-19T05:39:09.611Z,16.40
2023-01-19T05:39:43.378Z,16.50
2023-01-19T05:40:17.165Z,17.30
2023-01-19T05:40:56.664Z,16.80
2023-01-19T05:41:30.687Z,17.30
2023-01-19T05:42:04.412Z,16.70
2023-01-19T05:42:38.566Z,16.90
2023-01-19T05:43:12.244Z,16.10
2023-01-19T05:43:45.808Z,16.30
2023-01-19T05:44:19.264Z,16.10
2023-01-19T05:44:53.089Z,15.10
2023-01-19T05:45:28.560Z,17.10
2023-01-19T05:46:05.142Z,16.00
2023-01-19T05:46:39.748Z,17.60
2023-01-19T05:47:13.588Z,15.90
2023-01-19T05:47:47.165Z,15.50
2023-01-19T05:48:20.793Z,16.10
2023-01-19T05:48:54.404Z,18.00
2023-01-19T05:49:28.231Z,15.90
2023-01-19T05:50:01.817Z,16.20
2023-01-19T05:50:35.593Z,17.00
2023-01-19T05:51:09.268Z,16.80
2023-01-19T05:51:45.560Z,15.90
2023-01-19T05:52:19.092Z,17.40
2023-01-19T05:52:59.331Z,15.30
2023-01-19T05:53:33.066Z,15.70
2023-01-19T05:54:08.278Z,16.10
2023-01-19T05:54:41.705Z,16.10
2023-01-19T05:55:16.447Z,15.70
2023-01-19T05:55:50.048Z,15.30
2023-01-19T05:56:23.623Z,15.20
2023-01-19T05:56:57.935Z,14.90
2023-01-19T05:57:31.533Z,14.90
2023-01-19T05:58:05.209Z,15.20
2023-01-19T05:58:42.138Z,15.80
2023-01-19T05:59:17.713Z,14.60
2023-01-19T05:59:51.361Z,15.20
2023-01-19T06:00:25.954Z,15.90
2023-01-19T06:01:03.634Z,14.00
2023-01-19T06:01:39.858Z,15.50
2023-01-19T06:02:13.875Z,15.20
2023-01-19T06:02:49.550Z,15.10
2023-01-19T06:03:23.356Z,15.60
2023-01-19T06:03:57.141Z,15.80
2023-01-19T06:04:31.153Z,16.00
2023-01-19T06:05:05.701Z,15.80
2023-01-19T06:05:39.897Z,15.70
2023-01-19T06:06:17.958Z,14.80
2023-01-19T06:06:52.270Z,15.20
2023-01-19T06:07:28.293Z,14.30
2023-01-19T06:08:02.963Z,15.20
2023-01-19T06:08:37.345Z,14.90
2023-01-19T06:09:11.697Z,16.30
2023-01-19T06:09:45.780Z,12.80
2023-01-19T06:10:19.678Z,15.50
2023-01-19T06:10:53.638Z,15.30
2023-01-19T06:11:27.747Z,15.70
2023-01-19T06:12:01.738Z,15.40
2023-01-19T06:12:35.926Z,15.90
2023-01-19T06:13:11.469Z,15.60
2023-01-19T06:13:45.548Z,13.80
2023-01-19T06:14:19.410Z,15.30
2023-01-19T06:14:53.250Z,14.90
2023-01-19T06:15:27.217Z,16.70
2023-01-19T06:16:02.805Z,15.70
2023-01-19T06:16:37.140Z,16.70
2023-01-19T06:17:11.384Z,16.00
2023-01-19T06:17:45.317Z,15.70
2023-01-19T06:18:19.199Z,14.70
2023-01-19T06:18:55.389Z,15.60
2023-01-19T06:19:29.444Z,15.00
2023-01-19T06:20:03.829Z,15.40
2023-01-19T06:20:38.059Z,15.60
2023-01-19T06:21:14.623Z,15.40
2023-01-19T06:21:52.607Z,15.00
2023-01-19T06:22:26.531Z,15.10
2023-01-19T06:23:01.647Z,17.00
2023-01-19T06:23:37.254Z,14.90
2023-01-19T06:24:12.623Z,14.80
2023-01-19T06:24:51.058Z,15.50
2023-01-19T06:25:25.768Z,15.80
2023-01-19T06:25:59.843Z,14.60
2023-01-19T06:26:33.547Z,15.70
2023-01-19T06:27:07.350Z,14.80
2023-01-19T06:27:45.266Z,13.60
2023-01-19T06:28:19.113Z,15.00
2023-01-19T06:28:53.077Z,15.30
2023-01-19T06:29:29.737Z,14.80
2023-01-19T06:30:04.935Z,15.70
2023-01-19T06:30:38.707Z,15.60
2023-01-19T06:31:12.940Z,17.40
2023-01-19T06:31:49.821Z,16.10
2023-01-19T06:32:23.658Z,14.80
2023-01-19T06:32:57.623Z,14.30
2023-01-19T06:33:31.793Z,14.20
2023-01-19T06:34:08.248Z,12.40
2023-01-19T06:34:44.019Z,14.60
2023-01-19T06:35:18.675Z,15.20
2023-01-19T06:35:52.915Z,14.70
2023-01-19T06:36:26.971Z,15.20
2023-01-19T06:37:00.828Z,13.80
2023-01-19T06:37:35.812Z,12.50
2023-01-19T06:38:09.692Z,14.80
2023-01-19T06:38:43.493Z,13.80
2023-01-19T06:39:17.301Z,13.70
2023-01-19T06:39:51.076Z,14.20
2023-01-19T06:40:24.920Z,14.10
2023-01-19T06:40:59.517Z,14.70
2023-01-19T06:41:34.378Z,14.60
2023-01-19T06:42:08.747Z,14.50
2023-01-19T06:42:42.915Z,14.10
2023-01-19T06:43:20.624Z,14.20
2023-01-19T06:44:00.721Z,15.30
2023-01-19T06:44:35.339Z,13.70
2023-01-19T06:45:17.725Z,14.00
2023-01-19T06:45:52.428Z,12.90
2023-01-19T06:46:29.849Z,13.30
2023-01-19T06:47:15.763Z,12.90
2023-01-19T06:47:50.198Z,12.70
2023-01-19T06:48:24.988Z,13.80
2023-01-19T06:48:58.852Z,14.00
2023-01-19T06:49:32.616Z,14.10
2023-01-19T06:50:06.779Z,12.90
2023-01-19T06:50:53.363Z,12.40
2023-01-19T06:51:27.567Z,12.00
2023-01-19T06:52:02.029Z,13.20
2023-01-19T06:52:42.794Z,11.90
2023-01-19T06:53:52.579Z,11.70
2023-01-19T06:54:28.128Z,11.00
2023-01-19T06:55:06.286Z,11.90
2023-01-19T06:55:40.540Z,12.70
2023-01-19T06:56:14.736Z,11.40
2023-01-19T06:56:54.031Z,14.50
2023-01-19T06:57:29.846Z,12.10
2023-01-19T06:58:04.281Z,11.70
2023-01-19T06:58:40.479Z,12.80
2023-01-19T06:59:17.885Z,12.40
2023-01-19T06:59:53.090Z,11.90
2023-01-19T07:00:28.416Z,11.80
2023-01-19T07:01:07.366Z,12.30
2023-01-19T07:01:43.047Z,13.20
2023-01-19T07:02:27.347Z,11.60
2023-01-19T07:03:24.392Z,11.70
2023-01-19T07:04:00.406Z,11.80
2023-01-19T07:04:35.141Z,13.00
2023-01-19T07:05:10.912Z,13.80
2023-01-19T07:05:44.581Z,12.00
2023-01-19T07:06:18.675Z,11.80
2023-01-19T07:06:52.636Z,12.00
2023-01-19T07:07:27.000Z,12.30
2023-01-19T07:08:01.397Z,11.70
2023-01-19T07:08:37.436Z,11.60
2023-01-19T07:09:16.783Z,11.60
2023-01-19T07:09:53.802Z,11.40
2023-01-19T07:11:24.361Z,11.60
2023-01-19T07:11:30.282Z,12.00
2023-01-19T07:12:07.032Z,11.50
2023-01-19T07:12:41.198Z,12.60
2023-01-19T07:13:35.912Z,11.50
2023-01-19T07:14:10.534Z,8.80
2023-01-19T07:14:44.877Z,10.60
2023-01-19T07:15:23.028Z,10.60
2023-01-19T07:15:57.449Z,10.50
2023-01-19T07:16:31.655Z,12.20
2023-01-19T07:17:05.684Z,10.20
2023-01-19T07:17:39.680Z,10.80
2023-01-19T07:18:14.014Z,12.00
2023-01-19T07:18:51.251Z,12.10
2023-01-19T07:19:26.199Z,10.00
2023-01-19T07:20:00.619Z,11.70
2023-01-19T07:20:36.720Z,11.40
2023-01-19T07:21:13.060Z,11.70
2023-01-19T07:21:51.123Z,11.10
2023-01-19T07:22:29.494Z,11.20
2023-01-19T07:23:07.072Z,11.70
2023-01-19T07:23:43.664Z,12.00
2023-01-19T07:24:38.642Z,11.10
2023-01-19T07:25:14.050Z,11.30
2023-01-19T07:25:48.863Z,10.90
2023-01-19T07:26:26.161Z,10.90
2023-01-19T07:27:03.475Z,11.30
2023-01-19T07:27:41.397Z,11.00
2023-01-19T07:28:16.775Z,10.30
2023-01-19T07:28:52.242Z,11.50
2023-01-19T07:29:27.078Z,11.50
2023-01-19T07:30:19.511Z,9.70
2023-01-19T07:30:55.958Z,10.90
2023-01-19T07:31:31.008Z,10.50
2023-01-19T07:32:07.209Z,10.70
2023-01-19T07:32:45.887Z,9.90
2023-01-19T07:33:22.840Z,10.20
2023-01-19T07:33:58.228Z,10.00
2023-01-19T07:34:33.449Z,11.70
2023-01-19T07:35:09.598Z,11.20
2023-01-19T07:35:51.327Z,10.60
2023-01-19T07:36:25.393Z,9.30
2023-01-19T07:37:00.033Z,10.60
2023-01-19T07:37:35.299Z,10.40
2023-01-19T07:38:09.581Z,10.90
2023-01-19T07:38:44.215Z,10.60
2023-01-19T07:39:19.037Z,10.90
2023-01-19T07:39:53.594Z,9.90
2023-01-19T07:40:27.616Z,10.60
2023-01-19T07:41:03.394Z,9.90
2023-01-19T07:41:38.224Z,9.10
2023-01-19T07:42:14.620Z,9.50
2023-01-19T07:42:51.242Z,10.60
2023-01-19T07:43:25.439Z,9.70
2023-01-19T07:44:00.371Z,9.00
2023-01-19T07:44:36.282Z,10.90
2023-01-19T07:45:10.988Z,10.60
2023-01-19T07:45:45.896Z,10.00
2023-01-19T07:46:20.538Z,10.10
2023-01-19T07:46:54.955Z,9.30
2023-01-19T07:47:28.670Z,8.70
2023-01-19T07:48:03.425Z,9.80
2023-01-19T07:48:48.139Z,9.40
2023-01-19T07:49:22.152Z,9.20
2023-01-19T07:49:56.131Z,9.40
2023-01-19T07:50:30.126Z,9.80
2023-01-19T07:51:05.980Z,9.90
2023-01-19T07:51:39.916Z,9.70
2023-01-19T07:52:13.787Z,10.90
2023-01-19T07:52:50.857Z,10.50
2023-01-19T07:53:24.713Z,9.90
2023-01-19T07:53:58.688Z,12.10
2023-01-19T07:54:32.597Z,11.20
2023-01-19T07:55:07.163Z,11.10
2023-01-19T07:55:41.002Z,10.40
2023-01-19T07:57:05.577Z,11.00
2023-01-19T07:57:39.472Z,9.60
2023-01-19T07:58:13.472Z,9.40
2023-01-19T07:58:48.076Z,8.90
2023-01-19T07:59:22.664Z,9.30
2023-01-19T07:59:56.712Z,8.90
2023-01-19T08:00:30.561Z,9.90
2023-01-19T08:01:12.579Z,9.90